createdAt,value
2023-12-08T00:01:52.063Z,10.15
2023-12-08T00:04:27.244Z,11.15
2023-12-08T00:07:00.185Z,6.70
2023-12-08T00:09:34.907Z,9.75
2023-12-08T00:12:08.397Z,8.20
2023-12-08T00:14:41.151Z,8.38
2023-12-08T00:17:13.772Z,9.65
2023-12-08T00:19:47.287Z,6.00
2023-12-08T00:22:20.023Z,8.18
2023-12-08T00:24:54.114Z,10.13
2023-12-08T00:27:27.007Z,7.87
2023-12-08T00:30:00.900Z,6.65
2023-12-08T00:32:34.196Z,6.72
2023-12-08T00:35:07.641Z,10.48
2023-12-08T00:37:40.293Z,7.82
2023-12-08T00:40:15.165Z,8.02
2023-12-08T00:42:48.270Z,10.18
2023-12-08T00:45:22.350Z,10.35
2023-12-08T00:47:55.499Z,7.78
2023-12-08T00:50:28.307Z,10.63
2023-12-08T00:53:01.016Z,8.98
2023-12-08T00:55:35.065Z,9.50
2023-12-08T00:58:08.340Z,10.13
2023-12-08T01:00:41.152Z,11.15
2023-12-08T01:03:14.447Z,8.77
2023-12-08T01:05:47.067Z,11.00
2023-12-08T01:08:19.684Z,7.80
2023-12-08T01:10:53.682Z,8.52
2023-12-08T01:13:26.654Z,9.50
2023-12-08T01:15:59.317Z,9.80
2023-12-08T01:18:32.008Z,8.52
2023-12-08T01:21:04.982Z,7.90
2023-12-08T01:23:38.428Z,7.53
2023-12-08T01:26:12.727Z,10.43
2023-12-08T01:28:45.665Z,12.40
2023-12-08T01:31:18.902Z,9.02
2023-12-08T01:33:52.085Z,7.25
2023-12-08T01:36:41.535Z,6.65
2023-12-08T01:39:17.095Z,6.95
2023-12-08T01:41:53.347Z,8.30
2023-12-08T01:44:26.120Z,9.32
2023-12-08T01:46:59.259Z,8.40
2023-12-08T01:49:32.121Z,9.50
2023-12-08T01:52:05.994Z,10.40
2023-12-08T01:54:39.612Z,7.68
2023-12-08T01:57:13.899Z,10.07
2023-12-08T01:59:46.733Z,8.93
2023-12-08T02:02:19.576Z,9.70
2023-12-08T02:04:54.538Z,9.85
2023-12-08T02:10:00.034Z,6.78
2023-12-08T02:12:34.157Z,10.60
2023-12-08T02:15:08.124Z,7.53
2023-12-08T02:17:41.687Z,6.78
2023-12-08T02:20:14.977Z,8.40
2023-12-08T02:22:48.211Z,9.57
2023-12-08T02:25:22.335Z,11.68
2023-12-08T02:27:55.029Z,9.20
2023-12-08T02:30:27.858Z,7.50
2023-12-08T02:33:04.623Z,8.27
2023-12-08T02:35:39.896Z,9.73
2023-12-08T02:38:15.676Z,12.63
2023-12-08T02:40:49.731Z,6.53
2023-12-08T02:43:22.376Z,7.77
2023-12-08T02:45:55.358Z,10.70
2023-12-08T02:48:55.819Z,9.38
2023-12-08T02:51:29.126Z,8.57
2023-12-08T02:54:01.982Z,7.88
2023-12-08T02:56:36.141Z,9.32
2023-12-08T02:59:08.839Z,7.27
2023-12-08T03:01:42.991Z,8.10
2023-12-08T03:04:16.653Z,9.90
2023-12-08T03:06:49.596Z,7.25
2023-12-08T03:09:22.266Z,9.60
2023-12-08T03:11:56.396Z,12.85
2023-12-08T03:14:29.491Z,10.65
2023-12-08T03:17:02.698Z,9.27
2023-12-08T03:19:35.359Z,8.77
2023-12-08T03:22:08.034Z,7.65
2023-12-08T03:24:40.654Z,11.43
2023-12-08T03:27:15.250Z,9.18
2023-12-08T03:29:47.947Z,10.60
2023-12-08T03:32:20.705Z,12.00
2023-12-08T03:34:53.613Z,12.02
2023-12-08T03:37:26.514Z,9.23
2023-12-08T03:39:59.285Z,8.05
2023-12-08T03:42:37.709Z,12.10
2023-12-08T03:45:10.457Z,12.05
2023-12-08T03:47:43.296Z,10.43
2023-12-08T03:50:16.326Z,9.65
2023-12-08T03:52:54.312Z,12.55
2023-12-08T03:55:28.224Z,10.82
2023-12-08T03:58:02.488Z,11.40
2023-12-08T04:00:35.700Z,10.35
2023-12-08T04:03:08.795Z,12.23
2023-12-08T04:05:41.894Z,12.73
2023-12-08T04:08:14.618Z,12.30
2023-12-08T04:10:47.541Z,8.85
2023-12-08T04:13:21.761Z,11.27
2023-12-08T04:15:54.685Z,7.03
2023-12-08T04:18:27.515Z,7.10
2023-12-08T04:21:00.418Z,8.65
2023-12-08T04:23:33.257Z,10.68
2023-12-08T04:26:08.148Z,12.95
2023-12-08T04:31:14.998Z,9.73
2023-12-08T04:33:49.002Z,7.17
2023-12-08T04:36:21.919Z,11.35
2023-12-08T04:38:54.615Z,9.27
2023-12-08T04:41:27.378Z,10.63
2023-12-08T04:44:00.063Z,3.80
2023-12-08T04:46:34.508Z,9.35
2023-12-08T04:49:07.622Z,10.50
2023-12-08T04:51:43.128Z,11.25
2023-12-08T04:54:16.142Z,9.65
2023-12-08T04:56:49.012Z,7.70
2023-12-08T04:59:22.098Z,12.15
2023-12-08T05:01:56.231Z,7.97
2023-12-08T05:04:29.916Z,11.37
2023-12-08T05:07:02.875Z,7.32
2023-12-08T05:09:35.521Z,14.05
2023-12-08T05:12:08.614Z,13.60
2023-12-08T05:14:42.210Z,10.95
2023-12-08T05:17:16.678Z,9.55
2023-12-08T05:19:49.866Z,12.73
2023-12-08T05:22:22.650Z,13.95
2023-12-08T05:24:55.474Z,10.82
2023-12-08T05:27:29.034Z,9.07
2023-12-08T05:30:01.824Z,11.00
2023-12-08T05:32:36.578Z,11.30
2023-12-08T05:35:10.184Z,10.75
2023-12-08T05:37:42.970Z,8.57
2023-12-08T05:40:16.363Z,9.23
2023-12-08T05:42:49.573Z,13.20
2023-12-08T05:45:22.420Z,10.27
2023-12-08T05:47:57.076Z,11.27
2023-12-08T05:50:29.861Z,9.73
2023-12-08T05:53:04.693Z,10.98
2023-12-08T05:55:39.297Z,10.60
2023-12-08T05:58:12.009Z,11.30
2023-12-08T06:00:44.756Z,10.68
2023-12-08T06:03:19.724Z,16.70
2023-12-08T06:05:54.930Z,8.80
2023-12-08T06:08:28.003Z,16.33
2023-12-08T06:11:01.703Z,11.98
2023-12-08T06:13:34.978Z,12.85
2023-12-08T06:16:08.242Z,12.38
2023-12-08T06:18:42.482Z,13.27
2023-12-08T06:21:16.206Z,15.57
2023-12-08T06:23:48.994Z,13.77
2023-12-08T06:26:21.893Z,11.43
2023-12-08T06:28:54.693Z,16.67
2023-12-08T06:31:27.382Z,16.55
2023-12-08T06:34:09.971Z,13.85
2023-12-08T06:36:50.106Z,10.73
2023-12-08T06:39:23.401Z,16.30
2023-12-08T06:41:56.641Z,11.82
2023-12-08T06:44:30.692Z,11.00
2023-12-08T06:47:03.503Z,13.65
2023-12-08T06:49:37.709Z,18.17
2023-12-08T06:52:10.617Z,10.95
2023-12-08T06:54:43.432Z,13.20
2023-12-08T06:57:16.534Z,15.10
2023-12-08T06:59:49.582Z,12.10
2023-12-08T07:02:22.481Z,80.53
2023-12-08T07:04:56.731Z,18.13
2023-12-08T07:07:29.910Z,16.35
2023-12-08T07:10:02.725Z,12.93
2023-12-08T07:12:35.756Z,20.80
2023-12-08T07:15:09.619Z,14.43
2023-12-08T07:17:42.885Z,15.45
2023-12-08T07:20:19.334Z,14.23
2023-12-08T07:22:52.529Z,13.93
2023-12-08T07:25:25.718Z,17.02
2023-12-08T07:27:58.511Z,16.52
2023-12-08T07:30:31.602Z,11.57
2023-12-08T07:33:05.536Z,13.52
2023-12-08T07:35:39.729Z,16.30
2023-12-08T07:38:12.392Z,14.57
2023-12-08T07:40:46.555Z,13.63
2023-12-08T07:43:19.292Z,15.27
2023-12-08T07:45:54.955Z,15.32
2023-12-08T07:48:29.018Z,12.70
2023-12-08T07:51:03.202Z,15.63
2023-12-08T07:53:36.005Z,14.07
2023-12-08T07:56:09.137Z,20.58
2023-12-08T07:58:41.845Z,22.02
2023-12-08T08:01:14.588Z,26.17
2023-12-08T08:03:47.424Z,14.45
2023-12-08T08:06:21.805Z,13.57
2023-12-08T08:08:54.978Z,18.90
2023-12-08T08:11:28.249Z,14.23
2023-12-08T08:14:00.961Z,14.05
2023-12-08T08:16:33.651Z,17.83
2023-12-08T08:19:07.393Z,17.20
2023-12-08T08:21:42.649Z,17.52
2023-12-08T08:24:15.430Z,16.13
2023-12-08T08:26:48.789Z,15.52
2023-12-08T08:29:22.252Z,15.93
2023-12-08T08:31:55.124Z,18.90
2023-12-08T08:34:27.903Z,17.80
2023-12-08T08:37:02.113Z,16.58
2023-12-08T08:39:34.810Z,16.23
2023-12-08T08:42:08.078Z,31.67
2023-12-08T08:44:40.828Z,19.52
2023-12-08T08:47:14.407Z,13.63
2023-12-08T08:49:47.425Z,15.52
2023-12-08T08:52:22.573Z,21.55
2023-12-08T08:57:27.875Z,18.60
2023-12-08T09:00:01.573Z,15.65
2023-12-08T09:02:35.388Z,20.05
2023-12-08T09:05:08.915Z,14.02
2023-12-08T09:07:43.525Z,15.90
2023-12-08T09:12:53.080Z,18.63
2023-12-08T09:17:59.535Z,15.65
2023-12-08T09:20:32.277Z,16.13
2023-12-08T09:23:07.306Z,20.95
2023-12-08T09:25:41.309Z,16.02
2023-12-08T09:28:14.061Z,26.40
2023-12-08T09:30:48.076Z,27.45
2023-12-08T09:33:24.043Z,16.97
2023-12-08T09:35:59.465Z,20.48
2023-12-08T09:38:34.956Z,19.35
2023-12-08T09:41:07.868Z,31.30
2023-12-08T09:43:41.104Z,28.60
2023-12-08T09:46:15.028Z,21.33
2023-12-08T09:48:49.007Z,20.00
2023-12-08T09:51:22.435Z,21.25
2023-12-08T09:53:57.039Z,19.25
2023-12-08T09:56:30.636Z,16.83
2023-12-08T09:59:04.941Z,22.60
2023-12-08T10:01:37.700Z,25.05
2023-12-08T10:04:11.555Z,21.17
2023-12-08T10:06:45.010Z,30.15
2023-12-08T10:09:19.243Z,22.48
2023-12-08T10:11:52.079Z,23.58
2023-12-08T10:14:26.440Z,20.83
2023-12-08T10:16:59.075Z,19.17
2023-12-08T10:19:32.208Z,23.02
2023-12-08T10:22:06.236Z,10.73
2023-12-08T10:24:40.412Z,22.95
2023-12-08T10:27:13.411Z,23.93
2023-12-08T10:29:46.259Z,20.75
2023-12-08T10:32:20.082Z,38.83
2023-12-08T10:34:52.813Z,37.10
2023-12-08T10:37:26.441Z,21.15
2023-12-08T10:40:01.577Z,20.38
2023-12-08T10:45:11.599Z,21.90
2023-12-08T10:47:45.711Z,35.65
2023-12-08T10:52:53.785Z,24.60
2023-12-08T10:55:27.900Z,23.20
2023-12-08T10:58:03.031Z,25.58
2023-12-08T11:00:36.826Z,22.25
2023-12-08T11:03:10.908Z,38.38
2023-12-08T11:05:46.637Z,21.77
2023-12-08T11:08:20.119Z,24.73
2023-12-08T11:10:55.180Z,39.25
2023-12-08T11:16:12.950Z,20.73
2023-12-08T11:18:46.713Z,43.33
2023-12-08T11:21:19.978Z,26.33
2023-12-08T11:23:53.467Z,25.38
2023-12-08T11:26:30.920Z,40.03
2023-12-08T11:29:06.629Z,14.85
2023-12-08T11:31:44.201Z,26.38
2023-12-08T11:34:19.161Z,33.90
2023-12-08T11:36:52.720Z,44.00
2023-12-08T11:39:43.597Z,46.47
2023-12-08T11:42:19.374Z,44.17
2023-12-08T11:44:52.675Z,24.55
2023-12-08T11:47:27.039Z,25.02
2023-12-08T11:50:00.166Z,37.25
2023-12-08T11:52:34.647Z,40.92
2023-12-08T11:55:17.363Z,18.15
2023-12-08T11:58:07.550Z,11.10
2023-12-08T12:00:41.202Z,40.60
2023-12-08T12:03:14.154Z,35.10
2023-12-08T12:05:47.393Z,41.70
2023-12-08T12:08:26.852Z,40.40
2023-12-08T12:11:00.797Z,35.97
2023-12-08T12:13:38.643Z,37.97
2023-12-08T12:16:11.867Z,20.20
2023-12-08T12:18:44.997Z,28.67
2023-12-08T12:21:17.745Z,18.42
2023-12-08T12:23:50.460Z,28.73
2023-12-08T12:26:23.154Z,33.80
2023-12-08T12:28:57.573Z,39.17
2023-12-08T12:31:31.723Z,36.67
2023-12-08T12:34:04.684Z,20.90
2023-12-08T12:36:37.793Z,43.95
2023-12-08T12:39:12.189Z,43.90
2023-12-08T12:41:45.514Z,47.90
2023-12-08T12:44:19.611Z,49.67
2023-12-08T12:46:52.330Z,25.50
2023-12-08T12:49:25.475Z,57.65
2023-12-08T12:51:58.376Z,48.50
2023-12-08T12:54:35.954Z,49.92
2023-12-08T12:57:08.644Z,73.18
2023-12-08T12:59:52.996Z,63.47
2023-12-08T13:02:27.641Z,66.93
2023-12-08T13:05:05.324Z,41.27
2023-12-08T13:07:38.470Z,64.78
2023-12-08T13:10:11.259Z,79.05
2023-12-08T13:12:43.949Z,13.65
2023-12-08T13:15:18.651Z,61.90
2023-12-08T13:17:51.623Z,68.95
2023-12-08T13:20:25.249Z,75.05
2023-12-08T13:22:58.391Z,65.78
2023-12-08T13:25:31.229Z,85.00
2023-12-08T13:28:03.973Z,61.33
2023-12-08T13:30:38.105Z,68.57
2023-12-08T13:33:11.477Z,86.95
2023-12-08T13:35:44.595Z,85.25
2023-12-08T13:38:17.425Z,64.72
2023-12-08T13:40:50.910Z,82.90
2023-12-08T13:43:23.663Z,90.97
2023-12-08T13:45:57.811Z,80.50
2023-12-08T13:48:30.600Z,77.93
2023-12-08T13:53:40.031Z,87.45
2023-12-08T13:56:13.249Z,94.75
2023-12-08T13:58:46.472Z,106.38
2023-12-08T14:01:22.701Z,85.28
2023-12-08T14:03:55.541Z,96.55
2023-12-08T14:06:28.346Z,80.53
2023-12-08T14:09:02.742Z,89.82
2023-12-08T14:11:35.471Z,63.35
2023-12-08T14:14:08.688Z,72.63
2023-12-08T14:19:51.522Z,85.45
2023-12-08T14:25:02.253Z,102.32
2023-12-08T14:27:37.502Z,90.50
2023-12-08T14:30:11.631Z,85.47
2023-12-08T14:32:45.708Z,88.18
2023-12-08T14:35:26.726Z,83.93
2023-12-08T14:38:03.925Z,82.97
2023-12-08T14:40:37.880Z,83.53
2023-12-08T14:43:10.621Z,75.20
2023-12-08T14:45:43.283Z,63.55
2023-12-08T14:48:16.638Z,70.43
2023-12-08T14:50:51.836Z,74.53
2023-12-08T15:25:15.185Z,106.82
2023-12-08T15:27:49.446Z,109.15
2023-12-08T15:30:22.220Z,100.60
2023-12-08T15:32:55.027Z,96.85
2023-12-08T15:35:28.116Z,115.32
2023-12-08T15:38:01.389Z,94.38
2023-12-08T15:40:36.964Z,97.38
2023-12-08T15:43:09.729Z,116.25
2023-12-08T15:45:42.804Z,108.90
2023-12-08T15:48:15.726Z,114.30
2023-12-08T15:50:48.524Z,100.90
2023-12-08T15:53:21.193Z,101.20
2023-12-08T15:55:55.713Z,110.57
2023-12-08T15:58:29.083Z,121.75
2023-12-08T16:01:01.789Z,126.57
2023-12-08T16:03:34.648Z,80.88
2023-12-08T16:06:13.575Z,129.10
2023-12-08T16:08:46.994Z,132.75
2023-12-08T16:11:27.645Z,141.13
2023-12-08T16:14:03.617Z,117.28
2023-12-08T16:16:37.989Z,132.27
2023-12-08T16:19:13.032Z,125.60
2023-12-08T16:21:45.758Z,108.85
2023-12-08T16:24:18.714Z,133.30
2023-12-08T16:26:54.004Z,151.70
2023-12-08T16:29:26.816Z,132.25
2023-12-08T16:31:59.591Z,127.10
2023-12-08T16:34:32.854Z,147.30
2023-12-08T16:37:05.818Z,138.75
2023-12-08T16:39:38.701Z,142.65
2023-12-08T16:42:13.912Z,122.32
2023-12-08T16:44:48.084Z,144.43
2023-12-08T16:47:21.516Z,145.47
2023-12-08T16:49:54.833Z,134.60
2023-12-08T16:52:27.711Z,152.50
2023-12-08T16:55:00.695Z,164.27
2023-12-08T16:57:34.830Z,144.45
2023-12-08T17:00:08.456Z,154.20
2023-12-08T17:02:41.425Z,128.40
2023-12-08T17:05:14.636Z,148.77
2023-12-08T17:07:48.292Z,130.50
2023-12-08T17:10:21.204Z,133.48
2023-12-08T17:12:55.281Z,134.95
2023-12-08T17:15:28.115Z,130.93
2023-12-08T17:18:01.024Z,115.90
2023-12-08T17:20:33.852Z,119.13
2023-12-08T17:23:06.550Z,102.85
2023-12-08T17:25:39.202Z,103.80
2023-12-08T17:28:13.230Z,122.93
2023-12-08T17:30:50.437Z,78.77
2023-12-08T17:33:23.292Z,79.05
2023-12-08T17:35:57.230Z,76.35
2023-12-08T17:38:30.214Z,83.53
2023-12-08T17:41:02.981Z,84.57
2023-12-08T17:43:37.517Z,71.65
2023-12-08T17:46:12.690Z,67.30
2023-12-08T17:48:46.670Z,80.82
2023-12-08T17:51:20.434Z,67.60
2023-12-08T17:53:53.192Z,66.93
2023-12-08T17:56:26.019Z,62.63
2023-12-08T17:59:00.327Z,61.92
2023-12-08T18:01:33.050Z,76.35
2023-12-08T18:04:05.849Z,63.78
2023-12-08T18:06:38.952Z,64.50
2023-12-08T18:09:11.893Z,65.40
2023-12-08T18:11:45.009Z,63.67
2023-12-08T18:14:19.519Z,63.45
2023-12-08T18:16:52.372Z,65.88
2023-12-08T18:19:25.722Z,57.35
2023-12-08T18:21:58.985Z,67.30
2023-12-08T18:24:32.236Z,58.63
2023-12-08T18:27:05.260Z,75.28
2023-12-08T18:29:40.285Z,64.47
2023-12-08T18:34:47.169Z,73.20
2023-12-08T18:37:20.522Z,64.90
2023-12-08T18:39:53.748Z,62.08
2023-12-08T18:42:26.816Z,77.30
2023-12-08T18:45:01.058Z,62.47
2023-12-08T18:47:33.860Z,63.27
2023-12-08T18:50:07.874Z,59.35
2023-12-08T18:52:41.222Z,60.28
2023-12-08T18:55:14.354Z,61.33
2023-12-08T18:57:47.158Z,60.17
2023-12-08T19:00:21.862Z,65.93
2023-12-08T19:02:54.534Z,63.30
2023-12-08T19:05:27.808Z,68.25
2023-12-08T19:08:01.395Z,62.42
2023-12-08T19:10:34.136Z,61.95
2023-12-08T19:13:07.289Z,57.53
2023-12-08T19:15:41.505Z,55.05
2023-12-08T19:18:14.662Z,56.90
2023-12-08T19:20:49.410Z,55.97
2023-12-08T19:23:24.668Z,53.20
2023-12-08T19:26:00.999Z,53.58
2023-12-08T19:28:33.803Z,56.65
2023-12-08T19:31:08.513Z,48.15
2023-12-08T19:33:41.510Z,51.03
2023-12-08T19:36:15.967Z,51.60
2023-12-08T19:41:22.364Z,46.42
2023-12-08T19:43:55.756Z,46.90
2023-12-08T19:46:30.817Z,50.45
2023-12-08T19:51:36.415Z,52.10
2023-12-08T19:54:09.882Z,44.75
2023-12-08T19:56:44.341Z,48.50
2023-12-08T19:59:17.047Z,46.60
2023-12-08T20:01:53.411Z,45.67
2023-12-08T20:04:26.144Z,45.28
2023-12-08T20:06:59.477Z,44.88
2023-12-08T20:09:32.820Z,38.22
2023-12-08T20:12:05.920Z,43.42
2023-12-08T20:14:38.954Z,41.58
2023-12-08T20:17:22.091Z,42.38
2023-12-08T20:19:56.093Z,37.30
2023-12-08T20:22:28.838Z,35.40
2023-12-08T20:25:01.546Z,38.95
2023-12-08T20:27:34.461Z,37.90
2023-12-08T20:30:08.229Z,40.75
2023-12-08T20:32:42.446Z,38.10
2023-12-08T20:35:15.665Z,43.78
2023-12-08T20:37:48.525Z,38.15
2023-12-08T20:40:21.402Z,38.22
2023-12-08T20:42:54.759Z,37.15
2023-12-08T20:45:27.584Z,34.28
2023-12-08T20:48:01.821Z,41.35
2023-12-08T20:50:35.172Z,31.27
2023-12-08T20:53:07.928Z,35.00
2023-12-08T20:55:40.683Z,35.92
2023-12-08T20:58:13.562Z,33.83
2023-12-08T21:00:46.343Z,34.95
2023-12-08T21:03:21.973Z,31.05
2023-12-08T21:05:54.985Z,30.60
2023-12-08T21:08:27.902Z,33.47
2023-12-08T21:11:01.884Z,37.15
2023-12-08T21:13:34.624Z,30.20
2023-12-08T21:16:07.676Z,34.60
2023-12-08T21:18:42.114Z,25.17
2023-12-08T21:21:15.088Z,29.35
2023-12-08T21:23:48.850Z,21.42
2023-12-08T21:26:21.559Z,34.00
2023-12-08T21:28:55.382Z,23.73
2023-12-08T21:31:28.468Z,29.38
2023-12-08T21:34:02.773Z,26.40
2023-12-08T21:36:35.706Z,26.45
2023-12-08T21:39:08.828Z,24.73
2023-12-08T21:41:41.670Z,23.50
2023-12-08T21:44:14.450Z,24.25
2023-12-08T21:46:47.232Z,28.08
2023-12-08T21:49:21.990Z,22.83
2023-12-08T21:51:55.409Z,26.27
2023-12-08T21:54:28.388Z,21.98
2023-12-08T21:57:01.433Z,21.50
2023-12-08T21:59:35.026Z,17.92
2023-12-08T22:02:07.873Z,20.95
2023-12-08T22:04:42.016Z,23.55
2023-12-08T22:07:15.241Z,18.40
2023-12-08T22:09:48.105Z,16.05
2023-12-08T22:12:20.845Z,21.92
2023-12-08T22:14:53.644Z,16.77
2023-12-08T22:17:26.705Z,18.45
2023-12-08T22:20:01.298Z,21.85
2023-12-08T22:22:34.545Z,27.13
2023-12-08T22:25:08.260Z,18.20
2023-12-08T22:27:41.078Z,18.40
2023-12-08T22:30:14.021Z,15.57
2023-12-08T22:32:47.053Z,14.38
2023-12-08T22:35:21.361Z,17.63
2023-12-08T22:37:54.640Z,17.05
2023-12-08T22:40:28.425Z,23.75
2023-12-08T22:43:01.691Z,17.30
2023-12-08T22:45:34.528Z,18.67
2023-12-08T22:48:07.582Z,16.33
2023-12-08T22:50:49.058Z,15.75
2023-12-08T22:53:24.257Z,15.95
2023-12-08T22:55:56.974Z,15.45
2023-12-08T22:58:29.605Z,16.02
2023-12-08T23:01:02.354Z,15.93
2023-12-08T23:03:35.622Z,16.85
2023-12-08T23:06:09.888Z,17.17
2023-12-08T23:08:43.442Z,18.90
2023-12-08T23:11:16.412Z,16.30
2023-12-08T23:13:49.922Z,15.95
2023-12-08T23:16:22.571Z,12.85
2023-12-08T23:18:56.062Z,16.25
2023-12-08T23:21:30.620Z,15.25
2023-12-08T23:24:03.667Z,19.33
2023-12-08T23:26:37.280Z,20.35
2023-12-08T23:29:10.168Z,13.70
2023-12-08T23:31:42.951Z,13.38
2023-12-08T23:34:16.787Z,15.45
2023-12-08T23:36:52.079Z,15.10
2023-12-08T23:39:26.476Z,11.60
2023-12-08T23:41:59.659Z,18.50
2023-12-08T23:44:33.357Z,12.25
2023-12-08T23:47:06.392Z,20.60
2023-12-08T23:49:39.231Z,18.75
2023-12-08T23:52:13.484Z,13.05
2023-12-08T23:54:46.225Z,15.67
2023-12-08T23:57:19.464Z,16.35
2023-12-08T23:59:52.421Z,17.20
